Time;durP1;ratioP1;P1;durP2;ratioP2;P2;SDS_P1;SDS_P2;PMS_P1;PMS_P2;Temp;Humidity;BMP_temperature;BMP_pressure;BME280_temperature;BME280_humidity;BME280_pressure;Samples;Min_cycle;Max_cycle;Signal;HPM_P1;HPM_P2
2024/01/19 00:00:45;;;;;;;4.07;3.20;;;2.10;80.60;;;;;;5041390;28;20503;-93
2024/01/19 00:03:11;;;;;;;4.00;3.50;;;2.10;80.60;;;;;;5050313;28;20029;-93
2024/01/19 00:05:37;;;;;;;5.78;3.72;;;2.10;80.60;;;;;;5050532;28;20024;-93
2024/01/19 00:08:03;;;;;;;4.93;3.65;;;2.10;80.60;;;;;;5038022;28;20163;-93
2024/01/19 00:10:30;;;;;;;4.00;3.10;;;2.20;80.60;;;;;;5051204;28;20037;-92
2024/01/19 00:12:56;;;;;;;4.07;3.10;;;2.20;80.60;;;;;;5038492;28;20029;-93
2024/01/19 00:15:22;;;;;;;3.90;3.50;;;2.20;80.70;;;;;;5052686;28;20053;-93
2024/01/19 00:17:48;;;;;;;4.68;3.20;;;2.10;80.60;;;;;;5047881;28;20117;-92
2024/01/19 00:20:14;;;;;;;4.00;3.40;;;2.10;80.60;;;;;;5051367;28;20126;-92
2024/01/19 00:22:39;;;;;;;5.00;3.50;;;2.10;80.60;;;;;;5048492;28;20018;-92
2024/01/19 00:25:06;;;;;;;4.35;3.35;;;2.10;80.60;;;;;;5028144;28;20039;-93
2024/01/19 00:27:31;;;;;;;4.47;3.30;;;2.10;80.60;;;;;;5033787;28;20053;-92
2024/01/19 00:29:57;;;;;;;4.22;3.17;;;2.10;80.60;;;;;;5030492;28;20092;-92
2024/01/19 00:32:23;;;;;;;4.45;3.60;;;2.10;80.60;;;;;;5046265;28;20469;-93
2024/01/19 00:34:49;;;;;;;4.30;3.05;;;2.10;80.70;;;;;;5046007;28;20039;-93
2024/01/19 00:37:15;;;;;;;3.92;3.22;;;2.10;80.70;;;;;;5075170;28;20017;-92
2024/01/19 00:39:41;;;;;;;4.60;3.53;;;2.10;80.70;;;;;;5033322;28;20033;-93
2024/01/19 00:42:07;;;;;;;4.80;3.40;;;2.10;80.70;;;;;;5046996;28;20049;-93
2024/01/19 00:44:33;;;;;;;4.35;3.08;;;2.10;80.70;;;;;;5039008;28;20079;-93
2024/01/19 00:46:59;;;;;;;3.72;3.22;;;2.10;80.70;;;;;;5013666;28;20044;-93
2024/01/19 00:49:25;;;;;;;4.15;3.20;;;2.20;80.70;;;;;;5030866;28;20136;-92
2024/01/19 00:51:51;;;;;;;4.05;3.22;;;2.20;80.70;;;;;;5013889;28;20563;-93
2024/01/19 00:54:17;;;;;;;4.35;3.10;;;2.10;80.70;;;;;;5029473;28;20022;-94
2024/01/19 00:56:43;;;;;;;4.63;3.33;;;2.10;80.70;;;;;;5031935;28;20477;-93
2024/01/19 00:59:08;;;;;;;4.03;3.25;;;2.20;80.70;;;;;;5024641;28;20022;-92
2024/01/19 01:01:34;;;;;;;3.72;3.13;;;2.10;80.70;;;;;;5028015;28;20087;-93
2024/01/19 01:04:02;;;;;;;4.32;3.35;;;2.10;80.70;;;;;;5024772;28;20025;-93
2024/01/19 01:06:28;;;;;;;3.78;2.90;;;2.10;80.70;;;;;;5029787;28;20029;-93
2024/01/19 01:08:54;;;;;;;4.60;3.15;;;2.20;80.70;;;;;;5031711;28;20032;-93
2024/01/19 01:11:21;;;;;;;3.78;3.03;;;2.20;80.80;;;;;;5031047;28;20034;-94
2024/01/19 01:13:47;;;;;;;4.65;3.40;;;2.10;80.70;;;;;;5035370;28;20017;-94
2024/01/19 01:16:13;;;;;;;3.97;3.15;;;2.20;80.70;;;;;;5015719;28;20159;-94
2024/01/19 01:18:40;;;;;;;3.72;2.90;;;2.20;80.70;;;;;;5060707;28;20033;-94
2024/01/19 01:21:06;;;;;;;3.63;3.15;;;2.20;80.70;;;;;;5062049;28;20060;-93
2024/01/19 01:23:32;;;;;;;3.85;2.80;;;2.20;80.70;;;;;;5028782;28;20009;-94
2024/01/19 01:25:58;;;;;;;4.20;2.97;;;2.20;80.70;;;;;;5017628;28;20029;-94
2024/01/19 01:28:24;;;;;;;4.82;2.97;;;2.20;80.70;;;;;;5035017;28;20049;-94
2024/01/19 01:30:50;;;;;;;3.47;2.88;;;2.20;80.70;;;;;;5017996;28;20029;-93
2024/01/19 01:33:15;;;;;;;3.30;2.78;;;2.20;80.70;;;;;;5038072;28;20024;-75
2024/01/19 01:35:41;;;;;;;3.08;2.72;;;2.20;80.70;;;;;;5013220;28;20064;-76
2024/01/19 01:38:07;;;;;;;3.28;2.67;;;2.20;80.70;;;;;;5028602;28;20033;-75
2024/01/19 01:40:33;;;;;;;3.30;2.75;;;2.20;80.70;;;;;;5031620;28;20044;-75
2024/01/19 01:43:03;;;;;;;2.78;2.50;;;2.20;80.70;;;;;;5055069;28;20337;-79
2024/01/19 01:45:29;;;;;;;3.22;2.40;;;2.20;80.70;;;;;;5043154;28;20029;-75
2024/01/19 01:47:55;;;;;;;3.10;2.50;;;2.20;80.70;;;;;;5062637;28;20155;-75
2024/01/19 01:50:21;;;;;;;3.97;2.70;;;2.20;80.70;;;;;;5048217;28;20303;-79
2024/01/19 01:52:47;;;;;;;3.35;2.67;;;2.30;80.70;;;;;;5067606;28;20031;-75
2024/01/19 01:55:15;;;;;;;2.75;2.47;;;2.30;80.90;;;;;;5032176;28;20029;-75
2024/01/19 01:57:42;;;;;;;3.28;2.92;;;2.30;80.80;;;;;;5065213;28;20028;-94
2024/01/19 02:00:10;;;;;;;2.78;2.50;;;2.30;80.70;;;;;;5047115;28;20024;-78
2024/01/19 02:02:37;;;;;;;3.33;2.70;;;2.30;80.70;;;;;;5064224;28;20048;-75
2024/01/19 02:05:05;;;;;;;3.15;2.47;;;2.30;80.70;;;;;;5039105;28;20043;-75
2024/01/19 02:07:31;;;;;;;3.25;2.67;;;2.20;80.70;;;;;;5083658;28;20112;-80
2024/01/19 02:09:57;;;;;;;3.10;2.63;;;2.30;80.80;;;;;;5040018;28;20446;-95
2024/01/19 02:12:23;;;;;;;2.60;2.40;;;2.30;80.80;;;;;;5080077;28;20024;-75
2024/01/19 02:14:49;;;;;;;2.83;2.63;;;2.30;80.70;;;;;;5067536;28;20471;-79
2024/01/19 02:17:15;;;;;;;3.25;2.60;;;2.30;80.70;;;;;;5061594;28;20086;-80
2024/01/19 02:19:41;;;;;;;3.03;2.72;;;2.30;80.70;;;;;;5035272;28;20037;-93
2024/01/19 02:22:06;;;;;;;2.58;2.38;;;2.30;80.70;;;;;;5061056;28;20021;-80
2024/01/19 02:24:33;;;;;;;2.30;2.10;;;2.30;80.70;;;;;;5034378;28;20543;-80
2024/01/19 02:27:01;;;;;;;2.67;2.40;;;2.30;80.70;;;;;;5050911;28;20028;-94
2024/01/19 02:29:27;;;;;;;2.67;2.30;;;2.30;80.70;;;;;;5054523;28;20033;-94
2024/01/19 02:31:53;;;;;;;2.63;2.42;;;2.30;80.70;;;;;;5071720;28;20035;-75
2024/01/19 02:34:18;;;;;;;3.30;2.50;;;2.30;80.80;;;;;;5068408;28;20021;-75
2024/01/19 02:36:44;;;;;;;2.60;2.40;;;2.30;80.70;;;;;;5037682;28;20020;-79
2024/01/19 02:39:10;;;;;;;2.22;2.03;;;2.30;80.80;;;;;;5072837;28;20047;-79
2024/01/19 02:41:36;;;;;;;2.63;2.42;;;2.30;80.80;;;;;;5050711;28;20034;-79
2024/01/19 02:44:01;;;;;;;2.53;2.30;;;2.30;80.70;;;;;;5036918;28;20226;-94
2024/01/19 02:46:27;;;;;;;2.60;2.25;;;2.30;80.80;;;;;;5067548;28;20040;-78
2024/01/19 02:48:53;;;;;;;2.40;2.20;;;2.30;80.70;;;;;;5036086;28;20343;-95
2024/01/19 02:51:19;;;;;;;2.75;2.50;;;2.30;80.80;;;;;;5040538;28;20047;-79
2024/01/19 02:53:44;;;;;;;2.55;2.13;;;2.30;80.80;;;;;;5042790;28;20029;-93
2024/01/19 02:56:10;;;;;;;2.22;2.03;;;2.30;80.80;;;;;;5071955;28;20459;-93
2024/01/19 02:58:36;;;;;;;2.53;2.13;;;2.30;80.80;;;;;;5057236;28;20434;-93
2024/01/19 03:01:02;;;;;;;2.10;1.92;;;2.30;80.80;;;;;;5053834;28;20027;-79
2024/01/19 03:03:27;;;;;;;2.05;1.88;;;2.30;80.80;;;;;;5068355;28;20031;-79
2024/01/19 03:05:53;;;;;;;2.30;2.10;;;2.30;80.80;;;;;;5049753;28;20048;-79
2024/01/19 03:08:21;;;;;;;3.05;2.63;;;2.30;80.90;;;;;;5050232;28;20021;-79
2024/01/19 03:10:47;;;;;;;2.38;2.17;;;2.30;80.90;;;;;;5056780;28;20483;-80
2024/01/19 03:13:13;;;;;;;2.55;2.35;;;2.30;80.90;;;;;;5073589;28;20477;-79
2024/01/19 03:15:38;;;;;;;2.53;2.33;;;2.30;80.90;;;;;;5038727;28;20036;-94
2024/01/19 03:18:04;;;;;;;2.95;2.38;;;2.30;80.90;;;;;;5047639;28;20032;-80
2024/01/19 03:20:30;;;;;;;2.65;2.45;;;2.30;80.90;;;;;;5047468;28;20033;-94
2024/01/19 03:22:55;;;;;;;3.30;2.75;;;2.30;80.90;;;;;;5086859;28;20442;-93
2024/01/19 03:25:21;;;;;;;2.30;2.10;;;2.30;80.90;;;;;;5035723;28;20025;-80
2024/01/19 03:27:47;;;;;;;2.42;2.22;;;2.30;80.90;;;;;;5057111;28;20020;-95
2024/01/19 03:30:15;;;;;;;2.65;2.45;;;2.20;80.90;;;;;;5050788;28;20036;-79
2024/01/19 03:32:40;;;;;;;2.35;2.03;;;2.30;80.90;;;;;;5055490;28;20032;-94
2024/01/19 03:35:06;;;;;;;2.72;2.50;;;2.30;80.90;;;;;;5023935;28;20087;-80
2024/01/19 03:37:33;;;;;;;2.80;2.50;;;2.30;80.90;;;;;;5035979;28;20040;-95
2024/01/19 03:39:58;;;;;;;3.25;2.90;;;2.30;80.90;;;;;;5040383;28;20027;-75
2024/01/19 03:42:26;;;;;;;3.22;2.90;;;2.30;80.90;;;;;;5041330;28;20040;-73
2024/01/19 03:44:52;;;;;;;3.78;2.20;;;2.30;80.90;;;;;;5036845;28;20103;-75
2024/01/19 03:47:18;;;;;;;2.70;2.50;;;2.20;80.90;;;;;;5053583;28;20366;-94
2024/01/19 03:49:43;;;;;;;3.00;2.63;;;2.20;80.90;;;;;;5046519;28;20091;-80
2024/01/19 03:52:09;;;;;;;2.65;2.42;;;2.30;80.90;;;;;;5053459;28;20032;-76
2024/01/19 03:54:36;;;;;;;3.45;2.80;;;2.30;80.90;;;;;;5054472;28;20032;-94
2024/01/19 03:57:05;;;;;;;2.72;2.22;;;2.30;80.90;;;;;;5036857;28;20556;-75
2024/01/19 03:59:30;;;;;;;3.28;2.70;;;2.30;81.00;;;;;;5051709;28;20067;-75
2024/01/19 04:01:56;;;;;;;2.90;2.60;;;2.30;80.90;;;;;;5052359;28;20086;-92
2024/01/19 04:04:23;;;;;;;3.17;2.63;;;2.30;80.90;;;;;;5069086;28;20049;-75
2024/01/19 04:06:49;;;;;;;3.10;2.80;;;2.20;80.90;;;;;;5033638;28;20028;-75
2024/01/19 04:09:16;;;;;;;3.15;2.63;;;2.30;81.00;;;;;;5037030;28;20066;-79
2024/01/19 04:11:43;;;;;;;3.35;2.92;;;2.30;81.00;;;;;;5051373;28;20162;-80
2024/01/19 04:14:09;;;;;;;3.25;2.83;;;2.20;80.90;;;;;;5052314;28;20588;-80
2024/01/19 04:16:34;;;;;;;3.42;2.65;;;2.30;80.90;;;;;;5035237;28;20092;-80
2024/01/19 04:19:00;;;;;;;3.88;2.70;;;2.20;80.90;;;;;;5051169;28;20064;-93
2024/01/19 04:21:26;;;;;;;4.35;2.97;;;2.20;80.90;;;;;;5035513;28;20087;-79
2024/01/19 04:23:52;;;;;;;2.95;2.65;;;2.30;81.00;;;;;;5052348;28;20032;-93
2024/01/19 04:26:18;;;;;;;3.40;2.92;;;2.20;80.90;;;;;;5045596;28;20721;-79
2024/01/19 04:28:43;;;;;;;3.25;2.90;;;2.20;80.90;;;;;;5032023;28;20047;-93
2024/01/19 04:31:09;;;;;;;3.08;2.78;;;2.20;80.90;;;;;;5045581;28;20029;-75
2024/01/19 04:33:35;;;;;;;3.30;2.70;;;2.20;80.90;;;;;;5033605;28;20063;-79
2024/01/19 04:36:01;;;;;;;3.63;3.00;;;2.30;80.90;;;;;;5064091;28;20048;-75
2024/01/19 04:38:29;;;;;;;3.40;2.85;;;2.30;81.00;;;;;;5047730;28;20029;-78
2024/01/19 04:40:55;;;;;;;3.42;2.92;;;2.20;80.90;;;;;;5033958;28;20028;-80
2024/01/19 04:43:21;;;;;;;3.63;2.95;;;2.20;80.90;;;;;;5036737;28;20048;-92
2024/01/19 04:45:47;;;;;;;3.65;3.35;;;2.20;80.90;;;;;;5037228;28;20043;-94
2024/01/19 04:48:12;;;;;;;4.35;3.33;;;2.20;81.00;;;;;;5072156;28;20025;-93
2024/01/19 04:50:38;;;;;;;3.33;3.03;;;2.20;81.00;;;;;;5053768;28;20067;-74
2024/01/19 04:53:05;;;;;;;3.90;3.05;;;2.20;81.00;;;;;;5085107;28;20056;-75
2024/01/19 04:55:30;;;;;;;3.92;3.20;;;2.20;81.00;;;;;;5046284;28;20043;-75
2024/01/19 04:57:56;;;;;;;3.53;2.92;;;2.20;80.90;;;;;;5050116;28;20025;-80
2024/01/19 05:00:22;;;;;;;4.38;3.40;;;2.20;80.90;;;;;;5053814;28;20024;-80
2024/01/19 05:02:48;;;;;;;3.78;3.03;;;2.20;80.90;;;;;;5068468;28;20032;-78
2024/01/19 05:05:15;;;;;;;3.70;3.20;;;2.20;80.90;;;;;;5051775;28;20039;-75
2024/01/19 05:07:41;;;;;;;4.35;3.30;;;2.20;81.00;;;;;;5047663;28;20017;-81
2024/01/19 05:10:07;;;;;;;3.47;3.15;;;2.20;81.00;;;;;;5053699;28;20492;-78
2024/01/19 05:12:33;;;;;;;3.70;3.00;;;2.20;80.90;;;;;;5051614;28;20024;-80
2024/01/19 05:14:59;;;;;;;3.65;3.10;;;2.20;80.90;;;;;;5039042;28;20082;-93
2024/01/19 05:17:25;;;;;;;3.72;3.10;;;2.10;80.90;;;;;;5032752;28;20032;-75
2024/01/19 05:19:51;;;;;;;3.80;3.40;;;2.10;80.90;;;;;;5051274;28;20020;-74
2024/01/19 05:22:16;;;;;;;3.40;2.72;;;2.20;81.00;;;;;;5049463;28;20029;-79
2024/01/19 05:24:43;;;;;;;4.03;3.35;;;2.20;81.00;;;;;;5048244;28;20032;-78
2024/01/19 05:27:09;;;;;;;4.55;3.20;;;2.10;80.90;;;;;;5051232;28;20395;-79
2024/01/19 05:29:35;;;;;;;3.40;2.95;;;2.20;81.00;;;;;;5030791;28;20485;-80
2024/01/19 05:32:02;;;;;;;3.08;2.78;;;2.10;80.90;;;;;;5030024;28;20393;-75
2024/01/19 05:34:28;;;;;;;4.65;3.25;;;2.20;81.00;;;;;;5052944;28;20054;-93
2024/01/19 05:36:54;;;;;;;3.53;3.17;;;2.20;81.00;;;;;;5050141;28;20111;-78
2024/01/19 05:39:19;;;;;;;4.03;3.35;;;2.20;81.00;;;;;;5033245;28;20021;-86
2024/01/19 05:41:45;;;;;;;3.65;3.00;;;2.20;81.00;;;;;;5026074;28;20028;-86
2024/01/19 05:44:12;;;;;;;3.65;3.00;;;2.20;80.90;;;;;;5055333;28;20101;-81
2024/01/19 05:46:38;;;;;;;3.67;3.22;;;2.20;81.00;;;;;;5034608;28;20020;-86
2024/01/19 05:49:04;;;;;;;3.33;2.90;;;2.20;81.00;;;;;;5036885;28;20016;-90
2024/01/19 05:51:30;;;;;;;4.30;3.22;;;2.20;80.90;;;;;;5048507;28;20040;-78
2024/01/19 05:53:56;;;;;;;3.88;2.85;;;2.20;80.90;;;;;;5060393;28;20020;-74
2024/01/19 05:56:22;;;;;;;5.28;3.05;;;2.20;80.90;;;;;;5025545;28;20033;-92
2024/01/19 05:58:48;;;;;;;3.58;3.13;;;2.20;80.90;;;;;;5046343;28;20039;-80
2024/01/19 06:01:13;;;;;;;3.30;3.00;;;2.20;80.90;;;;;;5040923;28;20032;-75
2024/01/19 06:03:40;;;;;;;3.63;3.20;;;2.20;80.90;;;;;;5051707;28;20031;-74
2024/01/19 06:06:06;;;;;;;3.63;2.80;;;2.20;80.90;;;;;;5045863;28;20514;-79
2024/01/19 06:08:33;;;;;;;3.28;2.63;;;2.20;80.90;;;;;;5078407;28;20032;-79
2024/01/19 06:10:59;;;;;;;3.67;2.85;;;2.20;80.90;;;;;;5044838;28;20448;-75
2024/01/19 06:13:26;;;;;;;3.92;3.38;;;2.20;80.90;;;;;;5070049;28;20024;-75
2024/01/19 06:15:51;;;;;;;3.45;3.15;;;2.20;80.90;;;;;;5050213;28;20020;-74
2024/01/19 06:18:17;;;;;;;3.33;2.90;;;2.20;80.90;;;;;;5048281;28;20198;-74
2024/01/19 06:20:43;;;;;;;3.58;2.78;;;2.20;80.90;;;;;;5066970;28;20021;-90
2024/01/19 06:23:13;;;;;;;3.08;2.78;;;2.20;80.90;;;;;;5056796;28;20506;-89
2024/01/19 06:25:39;;;;;;;3.22;2.92;;;2.30;81.00;;;;;;5032156;28;20059;-80
2024/01/19 06:28:09;;;;;;;3.75;3.05;;;2.30;81.00;;;;;;5049602;28;20400;-74
2024/01/19 06:30:35;;;;;;;3.40;2.53;;;2.30;81.00;;;;;;5051854;28;20028;-74
2024/01/19 06:33:02;;;;;;;2.88;2.58;;;2.20;80.90;;;;;;5032811;28;20164;-74
2024/01/19 06:35:28;;;;;;;3.58;3.05;;;2.30;81.60;;;;;;5048979;28;20062;-79
2024/01/19 06:37:54;;;;;;;3.45;3.15;;;2.20;80.90;;;;;;5068379;28;20025;-79
2024/01/19 06:40:19;;;;;;;3.90;3.00;;;2.20;80.90;;;;;;5072036;28;20020;-74
2024/01/19 06:42:45;;;;;;;3.42;2.67;;;2.30;81.00;;;;;;5071156;28;20044;-90
2024/01/19 06:45:14;;;;;;;3.13;2.80;;;2.30;81.00;;;;;;5038249;28;20028;-91
2024/01/19 06:47:40;;;;;;;3.83;3.10;;;2.20;81.00;;;;;;5040601;28;20031;-74
2024/01/19 06:50:06;;;;;;;3.70;2.85;;;2.20;81.00;;;;;;5064513;28;20025;-75
2024/01/19 06:52:32;;;;;;;4.43;3.10;;;2.20;81.00;;;;;;5055379;28;20024;-75
2024/01/19 06:55:01;;;;;;;3.08;2.78;;;2.20;81.00;;;;;;5048165;28;20031;-78
2024/01/19 06:57:26;;;;;;;3.45;3.00;;;2.20;81.00;;;;;;5038832;28;20033;-79
2024/01/19 06:59:52;;;;;;;4.07;2.80;;;2.20;81.30;;;;;;5068120;28;20093;-79
2024/01/19 07:02:18;;;;;;;3.95;3.10;;;2.20;81.00;;;;;;5071459;28;20039;-74
2024/01/19 07:04:44;;;;;;;3.80;3.30;;;2.20;81.00;;;;;;5042085;28;20103;-89
2024/01/19 07:07:10;;;;;;;3.75;3.05;;;2.20;81.00;;;;;;5056027;28;20075;-79
2024/01/19 07:09:36;;;;;;;4.30;3.00;;;2.20;81.00;;;;;;5039709;28;20476;-79
2024/01/19 07:12:03;;;;;;;3.95;3.13;;;2.20;81.00;;;;;;5038167;28;20408;-74
2024/01/19 07:14:29;;;;;;;3.50;3.00;;;2.20;81.00;;;;;;5070537;28;20071;-79
2024/01/19 07:16:55;;;;;;;3.78;3.10;;;2.20;81.00;;;;;;5032626;28;20451;-74
2024/01/19 07:19:21;;;;;;;4.43;3.45;;;2.20;81.00;;;;;;5072168;28;20115;-74
2024/01/19 07:21:46;;;;;;;3.70;3.20;;;2.20;81.00;;;;;;5069676;28;20031;-78
2024/01/19 07:24:12;;;;;;;3.78;3.08;;;2.20;81.00;;;;;;5049964;28;20503;-78
2024/01/19 07:26:39;;;;;;;3.30;3.00;;;2.20;81.00;;;;;;5067286;28;20082;-74
2024/01/19 07:29:07;;;;;;;4.35;3.25;;;2.20;81.00;;;;;;5050744;28;20373;-79
2024/01/19 07:31:33;;;;;;;5.43;3.38;;;2.20;81.00;;;;;;5070145;28;20021;-80
2024/01/19 07:33:59;;;;;;;5.07;3.50;;;2.20;81.00;;;;;;5048738;28;20041;-80
2024/01/19 07:36:26;;;;;;;5.07;3.42;;;2.30;81.10;;;;;;5064523;28;20024;-74
2024/01/19 07:38:52;;;;;;;4.78;3.58;;;2.20;81.00;;;;;;5053907;28;20025;-75
2024/01/19 07:41:18;;;;;;;5.50;3.28;;;2.20;81.00;;;;;;5048015;28;20029;-79
2024/01/19 07:43:44;;;;;;;5.57;3.33;;;2.20;81.00;;;;;;5053135;28;20102;-78
2024/01/19 07:46:11;;;;;;;4.43;3.42;;;2.30;81.10;;;;;;5055997;28;20036;-91
2024/01/19 07:48:37;;;;;;;4.80;3.78;;;2.30;81.10;;;;;;5055061;28;20112;-80
2024/01/19 07:51:03;;;;;;;5.15;3.63;;;2.30;81.00;;;;;;5037140;28;20116;-92
2024/01/19 07:53:29;;;;;;;3.80;3.28;;;2.20;81.00;;;;;;5070055;28;20055;-90
2024/01/19 07:55:55;;;;;;;4.43;3.38;;;2.30;81.00;;;;;;5034424;28;20551;-74
2024/01/19 07:58:21;;;;;;;4.95;3.42;;;2.30;81.00;;;;;;5054338;28;20531;-75
2024/01/19 08:00:47;;;;;;;5.00;3.78;;;2.30;81.10;;;;;;5028196;28;20025;-91
2024/01/19 08:03:14;;;;;;;4.47;3.42;;;2.20;81.00;;;;;;5070747;28;20078;-91
2024/01/19 08:05:39;;;;;;;4.00;3.55;;;2.30;81.10;;;;;;5050140;28;20032;-88
2024/01/19 08:08:05;;;;;;;4.47;3.45;;;2.30;81.10;;;;;;5054330;28;20025;-74
2024/01/19 08:10:35;;;;;;;5.05;3.53;;;2.30;81.10;;;;;;5052448;28;20021;-78
2024/01/19 08:13:01;;;;;;;4.05;3.28;;;2.20;81.10;;;;;;5053520;28;20039;-80
2024/01/19 08:15:28;;;;;;;4.65;3.40;;;2.30;81.10;;;;;;5071070;28;20071;-80
2024/01/19 08:17:54;;;;;;;5.18;3.95;;;2.20;81.10;;;;;;5034296;28;20087;-74
2024/01/19 08:20:21;;;;;;;4.53;3.42;;;2.20;81.10;;;;;;5042033;28;20017;-79
2024/01/19 08:22:52;;;;;;;4.18;3.47;;;2.20;81.10;;;;;;5053314;28;20512;-79
2024/01/19 08:25:18;;;;;;;5.00;4.00;;;2.30;81.10;;;;;;5061000;28;20024;-79
2024/01/19 08:27:44;;;;;;;4.53;3.80;;;2.20;81.10;;;;;;5053492;28;20021;-79
2024/01/19 08:30:10;;;;;;;4.32;3.60;;;2.20;81.00;;;;;;5053513;28;20025;-89
2024/01/19 08:32:36;;;;;;;5.20;3.80;;;2.30;81.10;;;;;;5034761;28;20052;-78
2024/01/19 08:35:09;;;;;;;5.18;3.90;;;2.20;81.00;;;;;;5043953;28;20105;-79
2024/01/19 08:37:42;;;;;;;4.93;3.78;;;2.20;81.10;;;;;;5048927;28;20028;-74
2024/01/19 08:40:09;;;;;;;5.15;3.45;;;2.30;81.20;;;;;;5053552;28;20476;-88
2024/01/19 08:42:36;;;;;;;4.25;3.47;;;2.20;81.10;;;;;;5029846;28;20041;-79
2024/01/19 08:45:02;;;;;;;5.25;4.07;;;2.20;81.10;;;;;;5033247;28;20032;-78
2024/01/19 08:47:28;;;;;;;4.93;3.78;;;2.20;81.10;;;;;;5028560;28;20056;-79
2024/01/19 08:49:54;;;;;;;5.15;4.13;;;2.20;81.10;;;;;;5044287;28;20056;-74
2024/01/19 08:52:20;;;;;;;4.35;3.42;;;2.20;81.10;;;;;;5026695;28;20028;-79
2024/01/19 08:54:46;;;;;;;4.53;3.83;;;2.30;81.20;;;;;;5053991;28;20025;-79
2024/01/19 08:57:12;;;;;;;4.45;3.53;;;2.20;81.10;;;;;;5026301;28;20094;-79
2024/01/19 08:59:38;;;;;;;6.05;4.18;;;2.30;81.10;;;;;;5071893;28;20079;-82
2024/01/19 09:02:04;;;;;;;4.75;3.60;;;2.20;81.10;;;;;;5030751;28;20082;-74
2024/01/19 09:04:30;;;;;;;5.60;4.07;;;2.30;81.10;;;;;;5048396;28;20060;-88
2024/01/19 09:06:55;;;;;;;4.82;3.70;;;2.20;81.10;;;;;;5034877;28;20228;-78
2024/01/19 09:09:22;;;;;;;5.18;4.18;;;2.30;81.20;;;;;;5046739;28;20024;-78
2024/01/19 09:11:47;;;;;;;5.25;4.10;;;2.30;81.10;;;;;;5049544;28;20073;-79
2024/01/19 09:14:13;;;;;;;4.35;3.70;;;2.30;81.10;;;;;;5029595;28;20064;-74
2024/01/19 09:16:43;;;;;;;5.07;4.20;;;2.30;81.10;;;;;;5052070;28;20090;-79
2024/01/19 09:19:10;;;;;;;4.88;3.88;;;2.30;81.20;;;;;;5034395;28;20027;-78
2024/01/19 09:21:35;;;;;;;4.82;4.03;;;2.30;81.10;;;;;;5035597;28;20029;-79
2024/01/19 09:24:01;;;;;;;5.07;4.10;;;2.30;81.10;;;;;;5035880;28;20074;-75
2024/01/19 09:26:30;;;;;;;5.13;4.18;;;2.30;81.10;;;;;;5032736;28;20032;-89
2024/01/19 09:28:56;;;;;;;5.35;4.38;;;2.30;81.10;;;;;;5051679;28;20024;-74
2024/01/19 09:31:21;;;;;;;5.75;4.38;;;2.30;81.10;;;;;;5028102;28;20077;-79
2024/01/19 09:33:47;;;;;;;5.72;4.35;;;2.40;81.20;;;;;;5036413;28;20085;-79
2024/01/19 09:36:13;;;;;;;5.80;4.22;;;2.40;81.20;;;;;;5083022;28;20079;-79
2024/01/19 09:38:39;;;;;;;5.65;4.10;;;2.40;81.10;;;;;;5035909;28;20032;-79
2024/01/19 09:41:39;;;;;;;5.57;4.40;;;2.40;81.10;;;;;;5068971;28;20021;-78
2024/01/19 09:44:10;;;;;;;5.78;4.10;;;2.40;81.20;;;;;;5044505;28;20081;-78
2024/01/19 09:47:02;;;;;;;6.18;4.63;;;2.40;81.10;;;;;;5062002;28;20140;-77
2024/01/19 09:49:55;;;;;;;4.95;3.85;;;2.40;81.20;;;;;;5038212;28;20041;-79
2024/01/19 09:52:59;;;;;;;5.32;4.20;;;2.40;81.10;;;;;;5066822;28;20075;-79
2024/01/19 09:55:27;;;;;;;5.13;4.05;;;2.40;81.10;;;;;;5052361;28;20064;-74
2024/01/19 09:57:54;;;;;;;4.85;3.97;;;2.40;81.00;;;;;;5068561;28;20051;-74
2024/01/19 10:00:21;;;;;;;6.03;4.50;;;2.40;81.10;;;;;;5051041;28;20075;-88
2024/01/19 10:02:49;;;;;;;6.18;4.82;;;2.50;81.20;;;;;;5035538;28;20042;-88
2024/01/19 10:05:16;;;;;;;6.78;4.40;;;2.50;81.20;;;;;;5031900;28;20028;-87
2024/01/19 10:07:58;;;;;;;5.07;4.28;;;2.50;81.10;;;;;;5083346;28;20392;-79
2024/01/19 10:10:25;;;;;;;5.95;4.70;;;2.50;81.10;;;;;;5070765;28;20048;-74
2024/01/19 10:12:51;;;;;;;5.20;4.20;;;2.50;81.10;;;;;;5049227;28;20036;-88
2024/01/19 10:15:17;;;;;;;6.25;4.78;;;2.60;81.10;;;;;;5066222;28;20103;-79
2024/01/19 10:17:45;;;;;;;6.80;4.50;;;2.60;81.20;;;;;;5034514;28;20060;-88
2024/01/19 10:20:12;;;;;;;5.97;4.60;;;2.60;81.10;;;;;;5040457;28;20035;-78
2024/01/19 10:22:39;;;;;;;6.68;4.82;;;2.60;81.20;;;;;;5051797;28;20028;-88
2024/01/19 10:25:12;;;;;;;5.68;4.70;;;2.60;81.10;;;;;;5040361;28;20045;-78
2024/01/19 10:27:52;;;;;;;6.10;5.00;;;2.70;81.20;;;;;;5048748;28;20028;-74
2024/01/19 10:30:27;;;;;;;5.50;4.65;;;2.60;81.10;;;;;;5049477;28;20029;-88
2024/01/19 10:33:02;;;;;;;6.15;4.93;;;2.70;81.20;;;;;;5057172;28;20050;-74
2024/01/19 10:35:28;;;;;;;;;;;2.60;81.10;;;;;;5052910;28;20456;-74
2024/01/19 10:38:04;;;;;;;5.15;4.07;;;2.60;81.00;;;;;;5072697;28;19909;-74
2024/01/19 10:40:31;;;;;;;5.82;4.40;;;2.70;81.00;;;;;;5051486;28;20093;-79
2024/01/19 10:42:57;;;;;;;6.53;4.40;;;2.70;81.10;;;;;;5038266;28;20040;-74
2024/01/19 10:45:24;;;;;;;4.72;4.05;;;2.70;81.10;;;;;;5034227;28;20110;-74
2024/01/19 10:47:57;;;;;;;5.53;4.28;;;2.70;81.20;;;;;;5037746;28;20037;-74
2024/01/19 10:50:28;;;;;;;6.28;4.68;;;2.70;81.20;;;;;;5055673;28;20084;-74
2024/01/19 10:52:56;;;;;;;5.20;4.30;;;2.70;81.20;;;;;;5034064;28;20071;-74
2024/01/19 10:55:29;;;;;;;5.38;4.70;;;2.80;81.20;;;;;;5049151;28;20032;-78
2024/01/19 10:58:02;;;;;;;5.75;4.43;;;2.80;81.20;;;;;;5047723;28;20406;-88
2024/01/19 11:00:28;;;;;;;5.55;4.40;;;2.80;81.20;;;;;;5035683;28;20358;-79
2024/01/19 11:02:57;;;;;;;5.60;4.20;;;2.80;81.20;;;;;;5038596;28;20064;-78
2024/01/19 11:05:24;;;;;;;5.78;4.07;;;2.80;81.20;;;;;;5072885;28;20017;-89
2024/01/19 11:07:52;;;;;;;7.25;4.63;;;2.80;81.20;;;;;;5055357;28;20432;-80
2024/01/19 11:10:22;;;;;;;6.13;4.47;;;2.80;81.20;;;;;;5047298;28;20016;-89
2024/01/19 11:12:55;;;;;;;5.43;4.25;;;2.80;81.30;;;;;;5055773;28;20028;-89
2024/01/19 11:15:47;;;;;;;6.57;4.90;;;2.80;81.20;;;;;;5073710;28;20056;-79
2024/01/19 11:18:15;;;;;;;4.93;3.90;;;2.90;81.30;;;;;;5064012;28;20119;-74
2024/01/19 11:20:41;;;;;;;5.63;4.30;;;2.90;81.30;;;;;;5070430;28;20029;-74
2024/01/19 11:23:07;;;;;;;5.75;4.68;;;2.90;81.20;;;;;;5050476;28;20056;-80
2024/01/19 11:26:11;;;;;;;5.57;4.47;;;2.90;81.20;;;;;;5053332;28;20028;-90
2024/01/19 11:29:00;;;;;;;5.63;4.72;;;2.90;81.30;;;;;;5045632;28;20029;-81
2024/01/19 11:31:32;;;;;;;5.43;4.68;;;2.90;81.30;;;;;;5053443;28;20119;-90
2024/01/19 11:33:58;;;;;;;5.20;3.95;;;3.00;81.40;;;;;;5073832;28;20100;-75
2024/01/19 11:36:33;;;;;;;6.05;4.85;;;2.90;81.30;;;;;;5055828;28;20430;-81
2024/01/19 11:38:59;;;;;;;;;;;3.00;81.40;;;;;;5053914;28;20111;-74
2024/01/19 11:41:34;;;;;;;5.00;3.90;;;2.90;81.20;;;;;;5032674;28;20020;-75
2024/01/19 11:44:04;;;;;;;5.78;4.22;;;3.00;81.20;;;;;;5014183;28;20045;-91
2024/01/19 11:46:51;;;;;;;5.10;3.88;;;2.90;81.20;;;;;;5029340;28;20147;-79
2024/01/19 11:49:29;;;;;;;5.28;4.18;;;3.00;81.30;;;;;;5041479;28;20052;-75
2024/01/19 11:52:00;;;;;;;4.88;3.90;;;3.00;81.30;;;;;;5014511;28;20037;-75
2024/01/19 11:54:27;;;;;;;5.80;4.30;;;3.00;81.40;;;;;;5010206;28;20053;-80
2024/01/19 11:56:52;;;;;;;5.40;4.20;;;3.00;81.30;;;;;;5025705;28;20033;-75
2024/01/19 11:59:21;;;;;;;5.75;4.05;;;3.00;81.40;;;;;;5007632;28;20036;-81
2024/01/19 12:01:47;;;;;;;4.93;3.83;;;3.00;81.40;;;;;;5028515;28;20537;-82
2024/01/19 12:04:15;;;;;;;4.78;3.92;;;3.00;81.30;;;;;;5061849;28;20029;-76
2024/01/19 12:06:41;;;;;;;5.53;4.38;;;3.10;81.40;;;;;;5014948;28;20038;-88
2024/01/19 12:09:07;;;;;;;5.03;4.13;;;3.10;81.40;;;;;;5029253;28;20517;-80
2024/01/19 12:11:34;;;;;;;5.13;3.95;;;3.10;81.40;;;;;;5064262;28;20032;-88
2024/01/19 12:14:03;;;;;;;5.90;4.50;;;3.10;81.40;;;;;;5014816;28;20017;-95
2024/01/19 12:16:31;;;;;;;5.80;4.05;;;3.20;81.50;;;;;;5026553;28;20025;-81
2024/01/19 12:18:58;;;;;;;4.60;3.83;;;3.10;81.40;;;;;;5030154;28;20029;-81
2024/01/19 12:21:25;;;;;;;6.70;4.38;;;3.20;81.40;;;;;;5008760;28;20026;-80
2024/01/19 12:23:57;;;;;;;5.40;4.07;;;3.20;81.40;;;;;;5012012;28;20392;-74
2024/01/19 12:26:24;;;;;;;5.47;3.88;;;3.20;81.40;;;;;;5014568;28;20057;-89
2024/01/19 12:28:53;;;;;;;5.18;3.45;;;3.20;81.40;;;;;;5031892;28;20028;-80
2024/01/19 12:31:36;;;;;;;5.25;3.90;;;3.20;81.40;;;;;;5032531;28;20039;-92
2024/01/19 12:34:15;;;;;;;4.50;3.63;;;3.30;81.50;;;;;;5014135;28;20056;-74
2024/01/19 12:36:42;;;;;;;4.03;3.45;;;3.30;81.40;;;;;;5060896;28;20033;-80
2024/01/19 12:39:11;;;;;;;4.45;3.70;;;3.30;81.40;;;;;;5024229;28;20032;-79
2024/01/19 12:41:38;;;;;;;4.63;3.55;;;3.30;81.40;;;;;;5043327;28;20030;-80
2024/01/19 12:44:04;;;;;;;4.53;3.60;;;3.30;81.40;;;;;;5008844;28;20426;-74
2024/01/19 12:46:30;;;;;;;5.38;4.28;;;3.30;81.40;;;;;;5023405;28;20025;-90
2024/01/19 12:49:02;;;;;;;4.85;3.67;;;3.30;81.40;;;;;;5023690;28;20028;-80
2024/01/19 12:51:28;;;;;;;4.15;3.38;;;3.40;81.40;;;;;;5030544;28;20060;-80
2024/01/19 12:53:55;;;;;;;4.82;3.55;;;3.40;81.40;;;;;;5014992;28;20069;-80
2024/01/19 12:56:27;;;;;;;4.32;3.40;;;3.40;81.50;;;;;;5035374;28;20031;-80
2024/01/19 12:59:08;;;;;;;4.95;3.78;;;3.40;81.50;;;;;;5031859;28;20018;-91